Time;durP1;ratioP1;P1;durP2;ratioP2;P2;SDS_P1;SDS_P2;PMS_P1;PMS_P2;Temp;Humidity;BMP_temperature;BMP_pressure;BME280_temperature;BME280_humidity;BME280_pressure;Samples;Min_cycle;Max_cycle;Signal;HPM_P1;HPM_P2
2021/03/05 00:00:38;;;;;;;19.38;10.10;;;7.80;66.40;;;7.13;48.24;94495.53;5058427;28;20770;-82
2021/03/05 00:03:07;;;;;;;20.05;10.27;;;7.90;66.40;;;7.14;48.35;94492.75;5074775;28;20562;-82
2021/03/05 00:05:39;;;;;;;15.95;9.43;;;7.80;66.40;;;7.18;48.26;94493.22;5074853;28;20215;-82
2021/03/05 00:08:08;;;;;;;15.50;9.70;;;7.80;66.50;;;7.15;48.12;94494.38;5041604;28;20689;-81
2021/03/05 00:10:39;;;;;;;19.50;10.77;;;7.80;66.40;;;7.20;48.18;94499.84;5058577;28;20261;-82
2021/03/05 00:13:09;;;;;;;15.55;10.23;;;7.80;66.50;;;7.18;48.47;94494.00;5064449;28;20195;-82
2021/03/05 00:15:40;;;;;;;15.18;9.73;;;7.80;66.60;;;7.25;48.21;94496.72;5050851;28;20830;-82
2021/03/05 00:18:08;;;;;;;17.20;10.38;;;7.90;66.80;;;7.24;48.46;94497.69;5088042;28;20199;-82
2021/03/05 00:20:43;;;;;;;17.52;10.90;;;7.90;66.70;;;7.29;48.19;94490.13;5049927;28;20211;-81
2021/03/05 00:23:10;;;;;;;17.95;10.40;;;7.90;67.10;;;7.39;48.35;94499.50;5076138;28;20195;-81
2021/03/05 00:25:37;;;;;;;15.40;10.15;;;7.90;66.80;;;7.46;48.19;94503.78;5054646;28;20708;-82
2021/03/05 00:28:05;;;;;;;18.80;10.40;;;8.00;66.90;;;7.53;48.07;94494.22;5077039;28;20218;-80
2021/03/05 00:30:35;;;;;;;16.10;9.90;;;8.00;67.10;;;7.60;48.56;94493.50;5061466;28;20218;-82
2021/03/05 00:33:05;;;;;;;25.42;12.45;;;8.00;67.00;;;7.64;49.06;94486.91;5078391;28;20202;-83
2021/03/05 00:35:50;;;;;;;17.13;11.20;;;8.10;67.20;;;7.67;48.23;94482.13;5080262;28;20300;-83
2021/03/05 00:38:17;;;;;;;17.00;10.95;;;8.10;67.00;;;7.69;48.37;94474.13;5077850;28;20221;-83
2021/03/05 00:40:44;;;;;;;18.40;10.10;;;8.20;67.00;;;7.66;48.03;94472.69;5079467;28;20225;-82
2021/03/05 00:43:10;;;;;;;16.23;10.50;;;8.20;66.90;;;7.67;47.81;94479.53;5057694;28;20241;-82
2021/03/05 00:45:37;;;;;;;17.35;10.63;;;8.30;66.90;;;7.67;48.34;94476.91;5057783;28;20230;-82
2021/03/05 00:48:04;;;;;;;16.38;10.13;;;8.20;66.90;;;7.67;48.22;94470.91;5042519;28;20639;-82
2021/03/05 00:50:32;;;;;;;18.48;10.98;;;8.20;67.00;;;7.69;48.00;94472.31;5077916;28;20229;-83
2021/03/05 00:53:02;;;;;;;20.17;10.85;;;8.20;66.90;;;7.68;48.59;94465.47;5078134;28;20191;-83
2021/03/05 00:55:28;;;;;;;17.40;10.35;;;8.30;67.10;;;7.81;48.58;94479.66;5067839;28;20276;-83
2021/03/05 00:58:01;;;;;;;22.80;12.18;;;8.30;67.20;;;7.85;48.81;94478.31;5062780;28;20226;-82
2021/03/05 01:00:29;;;;;;;18.67;11.73;;;8.30;67.20;;;7.94;48.77;94482.41;5069315;28;20229;-82
2021/03/05 01:02:56;;;;;;;16.30;10.57;;;8.40;67.30;;;7.99;48.68;94460.97;5076777;28;20195;-83
2021/03/05 01:05:24;;;;;;;23.05;13.30;;;8.40;67.30;;;8.07;50.04;94463.47;5060888;28;20672;-82
2021/03/05 01:08:02;;;;;;;21.17;13.38;;;8.50;67.70;;;8.17;49.55;94466.53;5089599;28;20224;-82
2021/03/05 01:10:36;;;;;;;19.67;12.68;;;8.60;67.80;;;8.18;49.34;94454.31;5062808;28;20596;-83
2021/03/05 01:13:05;;;;;;;21.50;12.93;;;8.60;67.80;;;8.25;49.69;94449.13;5074209;28;20201;-83
2021/03/05 01:15:32;;;;;;;24.08;13.10;;;8.60;67.90;;;8.31;49.81;94448.38;5077000;28;20217;-83
2021/03/05 01:17:59;;;;;;;18.98;12.18;;;8.80;68.20;;;8.34;49.46;94450.63;5060219;28;20209;-82
2021/03/05 01:20:28;;;;;;;19.23;12.05;;;8.70;68.00;;;8.34;49.84;94445.41;5073395;28;20304;-83
2021/03/05 01:22:56;;;;;;;23.08;12.35;;;8.80;68.10;;;8.36;49.73;94447.81;5040318;28;20211;-83
2021/03/05 01:25:27;;;;;;;22.35;12.93;;;8.80;68.10;;;8.34;49.77;94438.34;5076876;28;20195;-83
2021/03/05 01:27:55;;;;;;;19.55;12.63;;;8.90;68.10;;;8.34;50.26;94427.91;5077158;28;20194;-82
2021/03/05 01:30:22;;;;;;;25.27;12.65;;;8.90;68.10;;;8.33;50.32;94428.09;5093715;28;20590;-83
2021/03/05 01:32:51;;;;;;;22.35;13.30;;;8.90;68.10;;;8.32;50.03;94421.25;5077173;28;20210;-82
2021/03/05 01:35:26;;;;;;;19.92;12.10;;;8.90;68.40;;;8.33;50.44;94420.25;5059995;28;20252;-83
2021/03/05 01:37:53;;;;;;;24.42;13.38;;;8.90;68.50;;;8.30;50.98;94420.63;5077047;28;20190;-82
2021/03/05 01:40:45;;;;;;;20.65;13.20;;;8.90;68.50;;;8.25;50.75;94426.44;5093245;28;20218;-82
2021/03/05 01:43:18;;;;;;;23.75;13.77;;;8.90;68.50;;;8.21;51.45;94417.34;5055639;28;20241;-82
2021/03/05 01:45:46;;;;;;;22.02;13.27;;;8.90;68.80;;;8.23;51.34;94425.00;5048274;28;20227;-83
2021/03/05 01:48:17;;;;;;;20.48;13.50;;;8.90;68.80;;;8.22;51.24;94424.19;5056413;28;20191;-82
2021/03/05 01:51:14;;;;;;;24.60;14.90;;;8.80;68.80;;;8.21;51.60;94409.50;5039912;28;20223;-82
2021/03/05 01:53:43;;;;;;;22.80;14.00;;;8.70;69.20;;;8.26;51.49;94417.56;5055839;28;20249;-83
2021/03/05 01:56:39;;;;;;;20.58;12.90;;;8.90;68.90;;;8.29;51.07;94417.22;5072271;28;20238;-82
2021/03/05 01:59:12;;;;;;;25.00;14.63;;;8.80;68.80;;;8.30;51.34;94411.00;5072312;28;20611;-83
2021/03/05 02:01:40;;;;;;;22.08;14.02;;;8.80;68.90;;;8.34;50.52;94408.81;5039327;28;20273;-81
2021/03/05 02:04:13;;;;;;;22.20;13.05;;;8.90;68.90;;;8.37;51.16;94403.19;5080897;28;20278;-82
2021/03/05 02:07:02;;;;;;;19.17;12.65;;;8.90;69.00;;;8.40;50.70;94394.16;5055675;28;20253;-82
2021/03/05 02:09:29;;;;;;;23.02;12.13;;;8.90;68.90;;;8.41;50.83;94403.63;5070419;28;20213;-83
2021/03/05 02:11:55;;;;;;;19.58;12.50;;;8.90;68.90;;;8.43;50.75;94401.63;5055055;28;20253;-82
2021/03/05 02:14:22;;;;;;;16.95;11.32;;;9.00;69.00;;;8.43;50.69;94406.84;5073970;28;20187;-81
2021/03/05 02:17:18;;;;;;;21.10;11.43;;;8.90;68.90;;;8.39;50.74;94406.44;5062294;28;20222;-82
2021/03/05 02:20:23;;;;;;;23.70;13.40;;;8.90;69.30;;;8.36;51.29;94409.44;5047011;28;20676;-82
2021/03/05 02:23:33;;;;;;;24.05;15.27;;;8.90;69.30;;;8.28;51.46;94407.75;5062302;28;20198;-82
2021/03/05 02:26:26;;;;;;;22.05;14.15;;;9.00;69.40;;;8.29;51.82;94417.22;5061377;28;20222;-82
2021/03/05 02:30:09;;;;;;;28.75;15.10;;;8.90;69.50;;;8.25;51.93;94426.44;5079130;28;20194;-81
2021/03/05 02:33:03;;;;;;;25.58;16.00;;;8.90;69.30;;;8.22;52.33;94426.00;5044369;28;20204;-82
2021/03/05 02:35:32;;;;;;;28.23;14.60;;;9.00;69.80;;;8.20;52.13;94425.38;5037410;28;20598;-82
2021/03/05 02:38:03;;;;;;;25.52;14.80;;;8.90;69.60;;;8.14;52.36;94425.13;5081531;28;20234;-82
2021/03/05 02:40:35;;;;;;;24.80;14.52;;;8.90;69.80;;;8.11;52.08;94416.88;5073672;28;20290;-81
2021/03/05 02:43:06;;;;;;;25.38;15.73;;;8.80;69.80;;;8.07;52.94;94419.06;5088248;28;20203;-81
2021/03/05 02:45:41;;;;;;;28.17;16.70;;;8.80;70.00;;;8.02;52.83;94416.19;5048478;28;20309;-81
2021/03/05 02:48:12;;;;;;;26.58;15.98;;;8.80;70.30;;;7.95;52.87;94413.53;5049768;28;20566;-81
2021/03/05 02:50:42;;;;;;;24.20;14.57;;;8.70;69.90;;;7.93;52.50;94425.94;5068710;28;20231;-82
2021/03/05 02:53:15;;;;;;;25.85;16.23;;;8.70;70.10;;;7.90;52.90;94426.34;5068680;28;20727;-81
2021/03/05 02:55:47;;;;;;;29.65;17.48;;;8.60;70.40;;;7.88;52.89;94430.94;5046434;28;20247;-81
2021/03/05 02:58:18;;;;;;;29.75;18.38;;;8.60;70.40;;;7.84;53.14;94429.69;5035450;28;20206;-82
2021/03/05 03:00:45;;;;;;;35.33;21.52;;;8.50;70.10;;;7.80;53.29;94444.94;5051562;28;20207;-81
2021/03/05 03:03:13;;;;;;;30.77;19.17;;;8.50;70.30;;;7.75;52.70;94441.25;5052630;28;20202;-82
2021/03/05 03:05:42;;;;;;;34.45;21.10;;;8.50;70.50;;;7.73;53.53;94440.66;5053498;28;20230;-82
2021/03/05 03:08:10;;;;;;;32.35;20.75;;;8.50;70.70;;;7.73;54.33;94443.25;5037312;28;20223;-81
2021/03/05 03:10:39;;;;;;;32.72;18.70;;;8.40;71.90;;;7.67;53.66;94448.19;5037823;28;20635;-81
2021/03/05 03:13:07;;;;;;;35.83;22.27;;;8.40;70.80;;;7.68;54.27;94449.03;5071617;28;20205;-82
2021/03/05 03:15:34;;;;;;;39.50;22.88;;;8.40;71.20;;;7.65;55.16;94446.78;5060279;28;20231;-81
2021/03/05 03:18:06;;;;;;;36.05;22.92;;;8.40;71.30;;;7.58;55.46;94451.94;5069828;28;20198;-81
2021/03/05 03:20:33;;;;;;;42.85;25.17;;;8.30;71.60;;;7.52;57.88;94453.47;5053522;28;20219;-81
2021/03/05 03:23:00;;;;;;;38.30;24.13;;;8.30;72.10;;;7.46;58.03;94454.22;5037997;28;20286;-80
2021/03/05 03:25:27;;;;;;;38.63;23.80;;;8.30;72.30;;;7.40;58.02;94462.78;5085688;28;20593;-81
2021/03/05 03:27:54;;;;;;;37.58;22.90;;;8.30;72.40;;;7.33;57.74;94449.63;5037892;28;20280;-80
2021/03/05 03:30:23;;;;;;;36.95;22.88;;;8.20;72.60;;;7.27;57.02;94446.97;5085655;28;20206;-80
2021/03/05 03:32:52;;;;;;;34.72;22.92;;;8.20;72.70;;;7.28;57.30;94448.59;5074922;28;20247;-81
2021/03/05 03:35:21;;;;;;;35.58;22.58;;;8.20;72.80;;;7.26;58.24;94455.78;5057305;28;20198;-79
2021/03/05 03:38:09;;;;;;;37.47;22.52;;;8.10;73.00;;;7.24;58.08;94455.97;5089657;28;20277;-80
2021/03/05 03:40:37;;;;;;;35.72;22.05;;;8.10;73.30;;;7.19;57.19;94453.91;5072453;28;20260;-80
2021/03/05 03:43:06;;;;;;;35.35;21.95;;;8.10;73.10;;;7.19;59.42;94489.63;5055874;28;20679;-80
2021/03/05 03:45:35;;;;;;;33.33;22.30;;;8.00;73.80;;;7.15;60.57;94475.28;5089626;28;20297;-80
2021/03/05 03:48:05;;;;;;;34.17;21.02;;;8.00;74.50;;;7.08;61.01;94469.19;5089670;28;20229;-80
2021/03/05 03:50:51;;;;;;;33.75;21.95;;;8.00;74.50;;;6.97;60.29;94460.84;5073847;28;20214;-80
2021/03/05 03:53:26;;;;;;;31.27;21.10;;;7.90;75.00;;;6.97;60.57;94470.44;5074293;28;20243;-80
2021/03/05 03:55:55;;;;;;;34.42;23.33;;;7.90;75.00;;;6.97;61.42;94480.88;5074286;28;20210;-79
2021/03/05 03:58:27;;;;;;;35.25;20.90;;;7.90;75.00;;;6.93;60.64;94463.97;5074099;28;20244;-80
2021/03/05 04:00:59;;;;;;;29.13;18.92;;;7.80;75.10;;;6.94;60.47;94473.44;5057637;28;20226;-80
2021/03/05 04:03:31;;;;;;;24.48;17.23;;;7.70;75.00;;;6.93;59.47;94475.22;5074216;28;20187;-80
2021/03/05 04:05:58;;;;;;;23.88;16.75;;;7.80;75.00;;;6.90;60.06;94472.97;5057427;28;20234;-79
2021/03/05 04:08:42;;;;;;;22.73;16.75;;;7.70;74.90;;;6.86;60.15;94479.53;5090646;28;20261;-80
2021/03/05 04:11:10;;;;;;;23.88;15.95;;;7.70;75.20;;;6.82;60.23;94479.09;5073976;28;20249;-79
2021/03/05 04:13:41;;;;;;;22.30;15.68;;;7.70;75.00;;;6.77;60.21;94481.41;5057610;28;20286;-80
2021/03/05 04:16:09;;;;;;;21.23;13.48;;;7.60;75.20;;;6.67;60.74;94481.66;5074183;28;20734;-79
2021/03/05 04:18:38;;;;;;;19.05;12.23;;;7.60;75.20;;;6.57;60.77;94489.75;5074620;28;20273;-80
2021/03/05 04:21:16;;;;;;;15.20;10.82;;;7.50;75.10;;;6.43;60.41;94500.16;5073926;28;20218;-79
2021/03/05 04:23:43;;;;;;;16.65;11.73;;;7.40;75.00;;;6.32;60.55;94504.78;5093501;28;20274;-80
2021/03/05 04:26:10;;;;;;;17.98;12.40;;;7.30;74.70;;;6.19;60.76;94500.16;5060690;28;20230;-79
2021/03/05 04:28:37;;;;;;;16.05;11.35;;;7.30;74.70;;;6.04;60.66;94487.09;5070012;28;20579;-80
2021/03/05 04:31:04;;;;;;;15.52;11.10;;;7.10;74.80;;;5.93;60.75;94492.66;5057330;28;20298;-79
2021/03/05 04:33:31;;;;;;;17.63;11.95;;;7.10;74.90;;;5.93;60.62;94501.31;5052561;28;20202;-79
2021/03/05 04:35:58;;;;;;;14.32;10.45;;;7.00;74.80;;;5.86;60.91;94502.16;5041908;28;20267;-79
2021/03/05 04:38:25;;;;;;;13.73;10.32;;;6.90;74.80;;;5.76;60.67;94510.19;5057390;28;20221;-80
2021/03/05 04:40:51;;;;;;;14.60;9.73;;;6.80;74.90;;;5.66;60.39;94501.78;5056961;28;20215;-80
2021/03/05 04:43:19;;;;;;;13.13;9.45;;;6.70;74.90;;;5.65;60.28;94506.19;5073162;28;20700;-80
2021/03/05 04:45:46;;;;;;;11.43;8.30;;;6.70;74.90;;;5.63;60.83;94525.53;5073653;28;20219;-79
2021/03/05 04:48:13;;;;;;;11.15;7.38;;;6.60;75.00;;;5.52;60.55;94513.75;5074917;28;20195;-79
2021/03/05 04:50:40;;;;;;;8.85;6.43;;;6.60;75.00;;;5.49;60.43;94527.06;5073631;28;20211;-80
2021/03/05 04:53:07;;;;;;;7.53;6.00;;;6.50;74.90;;;5.42;60.02;94525.16;5074213;28;20633;-79
2021/03/05 04:55:34;;;;;;;6.85;5.55;;;6.40;74.70;;;5.36;60.12;94532.81;5076633;28;20215;-80
2021/03/05 04:58:01;;;;;;;7.05;5.40;;;6.30;74.70;;;5.29;60.38;94527.50;5077151;28;20256;-79
2021/03/05 05:00:28;;;;;;;5.65;5.05;;;6.30;74.70;;;5.18;59.88;94533.84;5073529;28;20608;-80
2021/03/05 05:02:55;;;;;;;6.05;5.18;;;6.20;74.60;;;5.12;61.02;94544.94;5057272;28;20199;-80
2021/03/05 05:05:21;;;;;;;5.82;4.82;;;6.20;74.80;;;5.04;60.76;94544.94;5070732;28;20199;-79
2021/03/05 05:07:48;;;;;;;4.82;4.18;;;6.10;74.80;;;5.00;60.53;94557.47;5060431;28;20266;-80
2021/03/05 05:10:17;;;;;;;4.55;4.13;;;6.00;74.80;;;4.94;60.62;94555.53;5076768;28;20240;-79
2021/03/05 05:12:44;;;;;;;5.43;4.18;;;5.90;74.90;;;4.87;60.59;94570.16;5056692;28;20207;-79
2021/03/05 05:15:11;;;;;;;4.65;4.10;;;5.90;74.90;;;4.83;61.75;94579.25;5056584;28;20195;-80
2021/03/05 05:17:38;;;;;;;4.70;4.05;;;5.90;75.30;;;4.74;61.78;94578.47;5056839;28;20203;-79
2021/03/05 05:20:07;;;;;;;4.80;4.15;;;5.80;75.20;;;4.67;61.73;94578.28;5056665;28;20187;-79
2021/03/05 05:22:35;;;;;;;5.13;4.20;;;5.70;75.40;;;4.60;61.96;94577.31;5056757;28;20203;-79
2021/03/05 05:25:03;;;;;;;4.80;4.30;;;5.70;75.50;;;4.52;62.48;94585.94;5056486;28;20196;-80
2021/03/05 05:27:30;;;;;;;7.53;5.00;;;5.60;75.50;;;4.43;62.93;94598.13;5056166;28;20239;-78
2021/03/05 05:29:56;;;;;;;7.05;5.13;;;5.50;75.70;;;4.35;62.84;94594.72;5084532;28;20234;-79
2021/03/05 05:32:24;;;;;;;7.00;5.35;;;5.40;75.90;;;4.23;62.70;94594.19;5092869;28;20219;-79
2021/03/05 05:34:51;;;;;;;9.95;6.57;;;5.40;75.90;;;4.08;63.11;94594.03;5075900;28;20222;-79
2021/03/05 05:37:17;;;;;;;10.05;6.82;;;5.20;76.80;;;4.01;63.37;94601.63;5093225;28;20223;-79
2021/03/05 05:39:44;;;;;;;11.52;7.68;;;5.10;76.10;;;3.91;63.00;94603.56;5094091;28;20214;-79
2021/03/05 05:42:10;;;;;;;13.23;8.07;;;5.00;76.10;;;3.78;63.79;94615.16;5059798;28;20484;-79
2021/03/05 05:44:37;;;;;;;13.10;8.27;;;4.90;76.40;;;3.67;63.38;94623.22;5055449;28;20674;-80
2021/03/05 05:47:04;;;;;;;11.93;7.43;;;4.80;76.40;;;3.61;64.37;94629.03;5067644;28;20223;-78
2021/03/05 05:49:35;;;;;;;12.18;7.35;;;4.70;76.60;;;3.51;63.61;94640.34;5064727;28;20213;-80
2021/03/05 05:52:04;;;;;;;10.95;7.20;;;4.70;76.60;;;3.51;63.89;94652.50;5056748;28;20285;-78
2021/03/05 05:54:33;;;;;;;9.95;7.10;;;4.60;76.60;;;3.45;64.02;94656.50;5075401;28;20226;-78
2021/03/05 05:57:02;;;;;;;7.68;5.88;;;4.50;76.80;;;3.44;64.43;94664.47;5062817;28;20219;-80
2021/03/05 05:59:29;;;;;;;8.00;5.80;;;4.50;77.00;;;3.43;64.60;94666.25;5046588;28;20206;-79
2021/03/05 06:01:56;;;;;;;5.72;4.10;;;4.50;77.20;;;3.43;64.38;94668.00;5072127;28;20759;-79
2021/03/05 06:04:26;;;;;;;5.03;4.10;;;4.40;77.20;;;3.39;64.80;94675.28;5056288;28;20725;-79
2021/03/05 06:06:54;;;;;;;4.80;4.03;;;4.40;77.30;;;3.40;64.39;94689.06;5062145;28;20223;-79
2021/03/05 06:09:20;;;;;;;6.03;3.80;;;4.40;77.50;;;3.38;64.73;94680.63;5076907;28;20190;-79
2021/03/05 06:11:47;;;;;;;5.53;3.90;;;4.30;77.40;;;3.34;64.57;94696.50;5070095;28;20219;-78
2021/03/05 06:14:14;;;;;;;4.40;3.47;;;4.30;77.40;;;3.36;64.59;94696.34;5072536;28;20231;-80
2021/03/05 06:17:01;;;;;;;3.92;3.33;;;4.30;77.40;;;3.39;63.31;94703.78;5071943;28;20212;-79
2021/03/05 06:19:29;;;;;;;3.72;3.08;;;4.30;77.50;;;3.39;64.22;94705.59;5059483;28;20203;-78
2021/03/05 06:21:58;;;;;;;3.05;2.70;;;4.30;77.20;;;3.41;64.18;94711.44;5055584;28;20211;-79
2021/03/05 06:24:27;;;;;;;3.67;2.90;;;4.30;77.30;;;3.39;64.40;94714.16;5050049;28;20221;-79
2021/03/05 06:27:02;;;;;;;2.63;2.42;;;4.30;77.80;;;3.40;64.09;94720.19;5070074;28;20280;-80
2021/03/05 06:29:43;;;;;;;2.70;2.20;;;4.30;77.50;;;3.41;63.65;94727.81;5070918;28;20672;-80
2021/03/05 06:32:12;;;;;;;2.63;2.40;;;4.30;77.40;;;3.40;64.17;94731.34;5077727;28;20233;-79
2021/03/05 06:34:55;;;;;;;2.38;2.17;;;4.30;77.50;;;3.36;64.80;94738.63;5069491;28;20195;-80
2021/03/05 06:37:25;;;;;;;2.83;2.35;;;4.30;77.70;;;3.32;64.99;94739.06;5071716;28;20223;-79
2021/03/05 06:40:03;;;;;;;2.55;2.15;;;4.30;77.80;;;3.35;64.31;94738.78;5055210;28;20196;-79
2021/03/05 06:42:57;;;;;;;3.22;2.55;;;4.30;77.70;;;3.32;64.24;94744.25;5060288;28;20621;-78
2021/03/05 06:45:34;;;;;;;3.10;2.47;;;4.30;77.70;;;3.34;64.21;94753.53;5075839;28;20656;-78
2021/03/05 06:48:05;;;;;;;4.68;3.28;;;4.30;77.70;;;3.33;64.97;94758.84;5046808;28;20596;-79
2021/03/05 06:50:43;;;;;;;5.15;3.63;;;4.30;77.80;;;3.36;64.37;94768.94;5079430;28;20206;-78
2021/03/05 06:53:21;;;;;;;6.03;3.97;;;4.30;77.70;;;3.31;64.65;94771.97;5066607;28;20195;-79
2021/03/05 06:55:48;;;;;;;6.25;4.03;;;4.30;77.90;;;3.30;65.11;94780.69;5068386;28;20219;-79
2021/03/05 06:58:15;;;;;;;5.18;3.60;;;4.30;77.90;;;3.28;64.96;94785.22;5074109;28;20196;-79
2021/03/05 07:00:43;;;;;;;5.82;4.00;;;4.20;77.90;;;3.19;64.96;94768.78;5071312;28;20229;-78
2021/03/05 07:03:23;;;;;;;5.68;3.85;;;4.20;77.90;;;3.23;64.44;94786.63;5072184;28;20191;-79
2021/03/05 07:05:53;;;;;;;7.30;4.38;;;4.20;77.90;;;3.27;64.87;94808.69;5070050;28;20588;-79
2021/03/05 07:08:43;;;;;;;6.90;4.40;;;4.20;77.80;;;3.29;64.70;94804.19;5068775;28;20237;-79
2021/03/05 07:11:14;;;;;;;6.95;4.47;;;4.20;77.80;;;3.30;64.75;94813.59;5038267;28;20229;-79
2021/03/05 07:13:50;;;;;;;9.75;5.43;;;4.20;77.80;;;3.30;64.64;94823.97;5053620;28;20210;-78
2021/03/05 07:16:17;;;;;;;9.70;5.88;;;4.20;77.90;;;3.23;65.12;94828.13;5053425;28;20219;-80
2021/03/05 07:18:45;;;;;;;9.95;6.70;;;4.20;78.10;;;3.25;65.28;94826.16;5054291;28;20548;-79
2021/03/05 07:21:21;;;;;;;12.20;6.65;;;4.20;78.10;;;3.26;64.73;94838.16;5057042;28;20218;-79
2021/03/05 07:23:48;;;;;;;11.80;7.20;;;4.20;78.10;;;3.23;64.91;94823.72;5056082;28;20183;-80
2021/03/05 07:26:17;;;;;;;12.25;7.72;;;4.20;78.10;;;3.27;65.69;94844.97;5074051;28;20248;-80
2021/03/05 07:28:47;;;;;;;13.25;8.45;;;4.20;78.20;;;3.24;65.16;94838.31;5068852;28;20202;-80
2021/03/05 07:31:21;;;;;;;11.75;7.75;;;4.20;78.20;;;3.29;64.75;94850.84;5063001;28;20693;-79
2021/03/05 07:33:59;;;;;;;12.18;7.45;;;4.20;78.30;;;3.30;64.71;94848.09;5060897;28;20209;-80
2021/03/05 07:36:30;;;;;;;12.30;7.57;;;4.20;78.30;;;3.28;64.92;94854.41;5070739;28;20633;-79
2021/03/05 07:39:04;;;;;;;11.65;6.80;;;4.10;78.20;;;3.32;65.05;94866.91;5072480;28;20201;-79
2021/03/05 07:41:32;;;;;;;10.57;6.72;;;4.20;78.40;;;3.35;64.66;94858.03;5054110;28;20222;-80
2021/03/05 07:44:00;;;;;;;10.48;6.68;;;4.20;78.20;;;3.37;64.77;94861.28;5062518;28;20195;-79
2021/03/05 07:46:28;;;;;;;10.32;5.95;;;4.20;78.20;;;3.41;64.31;94867.00;5077361;28;20215;-79
2021/03/05 07:48:55;;;;;;;10.75;6.90;;;4.20;78.10;;;3.39;64.72;94866.31;5043778;28;20442;-79
2021/03/05 07:51:23;;;;;;;10.13;6.82;;;4.20;78.10;;;3.37;64.67;94869.06;5072664;28;20210;-79
2021/03/05 07:53:55;;;;;;;11.88;7.50;;;4.20;78.10;;;3.39;64.56;94877.50;5045105;28;20669;-80
2021/03/05 07:56:45;;;;;;;10.65;7.13;;;4.30;78.20;;;3.42;64.38;94890.19;5061150;28;20226;-78
2021/03/05 07:59:41;;;;;;;11.90;7.28;;;4.30;78.10;;;3.40;64.23;94892.09;5066889;28;20190;-79
2021/03/05 08:02:09;;;;;;;11.80;7.65;;;4.30;78.00;;;3.40;64.87;94899.88;5074173;28;20223;-80
2021/03/05 08:04:52;;;;;;;10.45;7.10;;;4.40;78.30;;;3.42;64.30;94902.31;5077137;28;20556;-79
2021/03/05 08:07:30;;;;;;;11.45;7.10;;;4.30;78.20;;;3.41;64.90;94909.28;5077785;28;20240;-80
2021/03/05 08:09:57;;;;;;;12.00;7.35;;;4.30;78.20;;;3.44;64.52;94900.41;5077626;28;20196;-78
2021/03/05 08:12:41;;;;;;;13.23;7.90;;;4.40;78.30;;;3.47;64.25;94915.66;5065974;28;20230;-79
2021/03/05 08:15:07;;;;;;;11.48;7.55;;;4.30;78.20;;;3.45;65.08;94915.78;5042317;28;20199;-79
2021/03/05 08:17:43;;;;;;;11.80;7.63;;;4.30;78.30;;;3.48;64.62;94912.13;5095440;28;20724;-77
2021/03/05 08:20:35;;;;;;;11.85;7.88;;;4.30;78.40;;;3.55;64.69;94910.53;5076512;28;20210;-79
2021/03/05 08:23:02;;;;;;;14.40;8.73;;;4.30;78.30;;;3.59;64.86;94905.88;5085706;28;20211;-79
2021/03/05 08:25:34;;;;;;;12.73;8.05;;;4.40;78.60;;;3.63;64.59;94912.41;5071154;28;20667;-80
2021/03/05 08:28:05;;;;;;;12.55;8.10;;;4.40;78.60;;;3.66;64.66;94912.94;5064359;28;20222;-79
2021/03/05 08:30:34;;;;;;;13.00;7.97;;;4.40;78.50;;;3.69;64.25;94915.22;5068515;28;20234;-80
2021/03/05 08:33:08;;;;;;;11.77;7.32;;;4.50;78.40;;;3.75;64.36;94912.97;5082943;28;20210;-80
2021/03/05 08:35:36;;;;;;;13.32;8.18;;;4.50;78.40;;;3.81;64.47;94927.97;5058354;28;20249;-79
2021/03/05 08:38:05;;;;;;;12.65;8.02;;;4.50;78.30;;;3.84;64.88;94925.06;5080678;28;20183;-79
2021/03/05 08:40:36;;;;;;;13.20;8.15;;;4.60;78.40;;;3.85;64.47;94937.88;5064501;28;20246;-80
2021/03/05 08:43:17;;;;;;;12.90;7.90;;;4.60;78.30;;;3.88;64.08;94935.94;5069666;28;20195;-79
2021/03/05 08:46:07;;;;;;;13.88;8.60;;;4.70;78.20;;;3.87;63.94;94929.13;5082408;28;20218;-80
2021/03/05 08:48:45;;;;;;;15.88;8.88;;;4.70;78.10;;;3.85;64.22;94937.88;5076618;28;20217;-79
2021/03/05 08:51:20;;;;;;;15.52;8.60;;;4.70;78.00;;;3.83;63.93;94950.19;5057958;28;20224;-78
2021/03/05 08:53:54;;;;;;;14.90;8.73;;;4.70;77.90;;;3.77;64.08;94942.19;5059069;28;20198;-80
2021/03/05 08:56:27;;;;;;;16.70;9.55;;;4.70;77.80;;;3.81;63.95;94959.09;5065578;28;20217;-79
2021/03/05 08:59:04;;;;;;;13.90;8.32;;;4.70;77.90;;;3.80;63.69;94962.66;5058846;28;20203;-80
2021/03/05 09:01:41;;;;;;;18.05;10.15;;;4.70;77.80;;;3.78;63.98;94964.56;5059998;28;20221;-79
2021/03/05 09:04:22;;;;;;;16.48;9.55;;;4.70;77.70;;;3.72;63.39;94965.16;5089079;28;20723;-80
2021/03/05 09:06:54;;;;;;;18.00;10.40;;;4.60;77.60;;;3.76;63.61;94971.69;5072089;28;20284;-78
2021/03/05 09:09:25;;;;;;;17.42;10.40;;;4.60;77.60;;;3.72;63.89;94978.13;5057490;28;20202;-79
2021/03/05 09:12:15;;;;;;;20.73;11.45;;;4.70;77.70;;;3.67;63.98;94988.94;5066985;28;20220;-78
2021/03/05 09:14:45;;;;;;;17.83;10.57;;;4.60;77.70;;;3.63;64.18;94985.81;5041154;28;20257;-79
2021/03/05 09:17:14;;;;;;;18.55;11.15;;;4.60;77.70;;;3.60;64.21;94986.13;5071914;28;20215;-77
2021/03/05 09:19:46;;;;;;;19.33;11.60;;;4.50;77.70;;;3.58;64.20;94982.88;5072265;28;20675;-79
2021/03/05 09:22:23;;;;;;;20.30;12.18;;;4.50;77.80;;;3.61;64.11;94990.34;5092639;28;20222;-78
2021/03/05 09:25:06;;;;;;;21.17;12.15;;;4.50;77.80;;;3.65;63.93;94988.28;5092321;28;20205;-78
2021/03/05 09:27:42;;;;;;;19.90;12.32;;;4.50;78.00;;;3.67;64.04;94982.00;5092430;28;20254;-79
2021/03/05 09:30:26;;;;;;;23.58;12.68;;;4.50;78.00;;;3.69;63.72;94990.44;5076382;28;20199;-79
2021/03/05 09:32:55;;;;;;;22.95;12.63;;;4.50;77.90;;;3.69;63.90;94998.22;5076346;28;20574;-79
2021/03/05 09:35:25;;;;;;;22.30;12.48;;;4.50;77.80;;;3.73;64.03;94998.72;5072993;28;20209;-79
2021/03/05 09:37:53;;;;;;;19.80;11.70;;;4.50;77.80;;;3.71;63.66;94995.50;5064599;28;20661;-79
2021/03/05 09:40:21;;;;;;;22.13;12.77;;;4.60;77.90;;;3.75;63.69;95009.78;5050707;28;20213;-79
2021/03/05 09:42:56;;;;;;;19.58;11.93;;;4.60;77.90;;;3.74;63.55;95010.75;5058238;28;20223;-78
2021/03/05 09:45:55;;;;;;;19.35;11.43;;;4.60;77.90;;;3.70;63.60;95009.41;5054334;28;20556;-79
2021/03/05 09:48:35;;;;;;;16.88;10.13;;;4.60;77.80;;;3.74;64.31;95015.94;5073149;28;20234;-79
2021/03/05 09:51:09;;;;;;;17.90;10.60;;;4.60;77.70;;;3.73;63.79;95011.69;5069437;28;20618;-79
2021/03/05 09:53:38;;;;;;;18.55;10.60;;;4.60;77.80;;;3.74;63.80;95028.91;5071438;28;20601;-79
2021/03/05 09:56:09;;;;;;;18.00;10.35;;;4.60;77.80;;;3.76;63.66;95028.75;5061990;28;20215;-79
2021/03/05 09:58:36;;;;;;;15.60;9.30;;;4.60;77.90;;;3.80;63.42;95025.72;5068070;28;20195;-79
2021/03/05 10:01:06;;;;;;;16.88;9.73;;;4.60;77.80;;;3.83;63.15;95030.63;5061620;28;20242;-79
2021/03/05 10:03:33;;;;;;;14.82;9.05;;;4.60;77.70;;;3.85;63.38;95030.47;5053157;28;20191;-79
2021/03/05 10:06:00;;;;;;;15.38;9.15;;;4.60;77.70;;;3.86;63.14;95042.50;5071574;28;20283;-78
2021/03/05 10:08:29;;;;;;;17.05;9.70;;;4.60;77.50;;;3.89;63.08;95043.97;5073262;28;20751;-79
2021/03/05 10:11:00;;;;;;;16.52;9.90;;;4.60;77.60;;;3.90;62.74;95049.00;5057831;28;20214;-78
2021/03/05 10:13:43;;;;;;;16.15;9.60;;;4.70;77.70;;;3.93;63.02;95053.91;5070348;28;20824;-79
2021/03/05 10:16:19;;;;;;;18.60;10.43;;;4.70;77.60;;;3.88;62.93;95050.91;5078773;28;20755;-79
2021/03/05 10:19:06;;;;;;;17.58;10.60;;;4.70;77.70;;;4.00;62.99;95060.16;5064531;28;20198;-79
2021/03/05 10:21:39;;;;;;;16.55;9.30;;;4.70;77.70;;;4.05;63.04;95061.47;5071195;28;20230;-79
2021/03/05 10:24:14;;;;;;;18.70;10.63;;;4.80;77.70;;;3.98;62.93;95056.06;5055457;28;20198;-79
2021/03/05 10:27:10;;;;;;;16.25;9.38;;;4.80;77.70;;;4.08;63.01;95068.97;5054411;28;20217;-78
2021/03/05 10:29:42;;;;;;;16.30;9.85;;;4.80;77.80;;;4.23;62.88;95074.47;5058146;28;20608;-78
2021/03/05 10:32:33;;;;;;;15.02;9.00;;;4.90;77.90;;;4.28;62.64;95077.44;5071635;28;20241;-78
2021/03/05 10:35:15;;;;;;;16.67;9.77;;;4.90;77.80;;;4.30;63.06;95078.91;5070923;28;20575;-79
2021/03/05 10:37:43;;;;;;;15.38;9.45;;;5.00;77.80;;;4.35;62.99;95086.25;5054952;28;20222;-79
2021/03/05 10:40:15;;;;;;;17.08;9.88;;;5.00;77.90;;;4.40;63.00;95091.81;5055116;28;20313;-79
2021/03/05 10:42:42;;;;;;;15.10;9.75;;;5.00;78.70;;;4.44;63.35;95092.34;5055404;28;20200;-79
2021/03/05 10:45:10;;;;;;;14.82;9.85;;;5.10;77.90;;;4.43;63.36;95090.69;5059336;28;20268;-79